createdAt,value
2023-05-14T00:02:18.537Z,5.57
2023-05-14T00:05:21.379Z,5.15
2023-05-14T00:08:23.725Z,5.28
2023-05-14T00:11:26.395Z,5.75
2023-05-14T00:14:28.739Z,5.45
2023-05-14T00:17:31.415Z,5.15
2023-05-14T00:20:33.756Z,5.00
2023-05-14T00:23:36.493Z,4.57
2023-05-14T00:26:38.765Z,5.00
2023-05-14T00:29:41.340Z,5.03
2023-05-14T00:32:43.780Z,5.12
2023-05-14T00:35:46.393Z,5.35
2023-05-14T00:38:49.413Z,4.55
2023-05-14T00:41:52.017Z,5.00
2023-05-14T00:44:54.417Z,4.72
2023-05-14T00:47:57.187Z,4.62
2023-05-14T00:50:59.760Z,4.50
2023-05-14T00:54:02.794Z,5.07
2023-05-14T00:57:06.754Z,4.82
2023-05-14T01:00:10.010Z,4.90
2023-05-14T01:03:12.411Z,5.37
2023-05-14T01:06:34.169Z,5.23
2023-05-14T01:09:46.440Z,5.47
2023-05-14T01:13:13.100Z,5.22
2023-05-14T01:16:18.812Z,5.62
2023-05-14T01:19:29.815Z,5.30
2023-05-14T01:22:32.107Z,5.60
2023-05-14T01:25:35.453Z,5.43
2023-05-14T01:28:38.467Z,5.30
2023-05-14T01:31:44.152Z,5.25
2023-05-14T01:34:48.741Z,5.45
2023-05-14T01:37:53.490Z,6.00
2023-05-14T01:40:57.489Z,5.60
2023-05-14T01:44:00.151Z,5.68
2023-05-14T01:47:02.474Z,6.03
2023-05-14T01:50:05.514Z,5.55
2023-05-14T01:53:07.901Z,5.85
2023-05-14T01:56:10.603Z,6.07
2023-05-14T01:59:12.990Z,6.60
2023-05-14T02:02:15.884Z,6.12
2023-05-14T02:05:18.909Z,5.97
2023-05-14T02:08:21.750Z,5.97
2023-05-14T02:11:24.434Z,5.80
2023-05-14T02:14:27.040Z,5.72
2023-05-14T02:17:29.798Z,5.53
2023-05-14T02:20:32.393Z,5.37
2023-05-14T02:23:41.552Z,5.70
2023-05-14T02:26:45.050Z,5.37
2023-05-14T02:29:47.619Z,5.18
2023-05-14T02:32:50.538Z,5.32
2023-05-14T02:35:52.951Z,5.10
2023-05-14T02:38:55.599Z,5.45
2023-05-14T02:41:58.053Z,5.28
2023-05-14T02:45:00.790Z,5.10
2023-05-14T02:48:03.207Z,5.15
2023-05-14T02:51:06.281Z,5.37
2023-05-14T02:54:08.670Z,4.87
2023-05-14T02:57:11.264Z,5.93
2023-05-14T03:00:13.849Z,5.05
2023-05-14T03:03:18.874Z,5.25
2023-05-14T03:06:22.166Z,5.12
2023-05-14T03:09:25.006Z,5.20
2023-05-14T03:12:27.415Z,5.65
2023-05-14T03:15:30.068Z,5.47
2023-05-14T03:18:33.457Z,5.53
2023-05-14T03:21:36.114Z,5.70
2023-05-14T03:24:40.335Z,5.03
2023-05-14T03:27:42.944Z,5.53
2023-05-14T03:30:45.527Z,5.53
2023-05-14T03:33:48.185Z,5.57
2023-05-14T03:36:50.651Z,5.00
2023-05-14T03:39:53.221Z,5.00
2023-05-14T03:42:56.105Z,5.25
2023-05-14T03:45:58.881Z,4.72
2023-05-14T03:49:01.646Z,5.10
2023-05-14T03:52:04.756Z,4.23
2023-05-14T03:55:07.488Z,4.10
2023-05-14T03:58:14.237Z,4.12
2023-05-14T04:01:16.849Z,4.03
2023-05-14T04:04:19.549Z,3.72
2023-05-14T04:07:22.029Z,4.30
2023-05-14T04:10:24.886Z,4.18
2023-05-14T04:13:28.904Z,3.90
2023-05-14T04:16:31.578Z,3.78
2023-05-14T04:19:33.907Z,4.10
2023-05-14T04:22:36.609Z,3.95
2023-05-14T04:25:38.909Z,3.87
2023-05-14T04:28:41.502Z,3.95
2023-05-14T04:31:44.726Z,3.45
2023-05-14T04:34:47.483Z,3.85
2023-05-14T04:37:49.769Z,4.12
2023-05-14T04:40:52.331Z,3.80
2023-05-14T04:43:56.596Z,3.90
2023-05-14T04:46:59.181Z,3.90
2023-05-14T04:50:01.635Z,3.95
2023-05-14T04:53:04.389Z,3.87
2023-05-14T04:56:06.898Z,3.92
2023-05-14T04:59:09.559Z,3.62
2023-05-14T05:02:11.858Z,4.03
2023-05-14T05:05:14.515Z,4.15
2023-05-14T05:08:16.894Z,4.00
2023-05-14T05:11:19.428Z,4.20
2023-05-14T05:14:21.799Z,4.07
2023-05-14T05:17:25.473Z,4.57
2023-05-14T05:20:28.345Z,4.20
2023-05-14T05:23:30.948Z,4.07
2023-05-14T05:26:33.303Z,4.28
2023-05-14T05:29:36.560Z,4.28
2023-05-14T05:32:39.183Z,4.30
2023-05-14T05:35:41.932Z,3.95
2023-05-14T05:38:44.267Z,4.40
2023-05-14T05:41:46.898Z,3.85
2023-05-14T05:44:49.463Z,4.05
2023-05-14T05:47:52.458Z,4.50
2023-05-14T05:50:54.928Z,4.05
2023-05-14T05:53:58.015Z,4.25
2023-05-14T05:57:00.822Z,4.07
2023-05-14T06:00:12.897Z,4.27
2023-05-14T06:03:15.170Z,4.28
2023-05-14T06:06:17.813Z,4.55
2023-05-14T06:09:20.887Z,4.18
2023-05-14T06:12:23.513Z,4.45
2023-05-14T06:15:25.932Z,4.53
2023-05-14T06:18:28.551Z,4.68
2023-05-14T06:21:30.876Z,4.10
2023-05-14T06:24:33.601Z,4.70
2023-05-14T06:27:36.319Z,4.30
2023-05-14T06:30:38.941Z,4.43
2023-05-14T06:33:41.381Z,5.18
2023-05-14T06:36:44.025Z,4.95
2023-05-14T06:39:50.144Z,4.93
2023-05-14T06:42:52.920Z,4.40
2023-05-14T06:45:55.645Z,4.30
2023-05-14T06:48:59.656Z,4.45
2023-05-14T06:52:02.281Z,4.55
2023-05-14T06:55:05.278Z,4.85
2023-05-14T06:58:09.491Z,4.95
2023-05-14T07:01:12.131Z,5.00
2023-05-14T07:04:14.509Z,4.60
2023-05-14T07:07:20.687Z,4.80
2023-05-14T07:10:23.492Z,4.85
2023-05-14T07:13:28.807Z,5.18
2023-05-14T07:16:31.292Z,4.78
2023-05-14T07:19:33.897Z,4.80
2023-05-14T07:22:36.224Z,5.25
2023-05-14T07:25:39.313Z,4.72
2023-05-14T07:28:41.628Z,4.95
2023-05-14T07:31:44.530Z,4.60
2023-05-14T07:34:47.059Z,4.60
2023-05-14T07:37:49.841Z,5.00
2023-05-14T07:40:52.183Z,4.68
2023-05-14T07:43:54.957Z,4.43
2023-05-14T07:46:57.322Z,4.97
2023-05-14T07:50:00.001Z,4.62
2023-05-14T07:53:02.366Z,4.80
2023-05-14T07:56:05.329Z,4.75
2023-05-14T07:59:07.655Z,4.53
2023-05-14T08:02:12.694Z,4.57
2023-05-14T08:05:15.912Z,4.62
2023-05-14T08:08:18.354Z,4.60
2023-05-14T08:11:22.430Z,4.40
2023-05-14T08:17:27.712Z,5.18
2023-05-14T08:20:31.194Z,5.18
2023-05-14T08:23:33.998Z,5.10
2023-05-14T08:26:36.485Z,4.78
2023-05-14T08:29:39.133Z,4.95
2023-05-14T08:32:42.828Z,4.70
2023-05-14T08:35:45.944Z,5.22
2023-05-14T08:38:50.429Z,5.25
2023-05-14T08:41:53.684Z,5.00
2023-05-14T08:45:05.835Z,5.12
2023-05-14T08:48:15.934Z,5.32
2023-05-14T08:51:19.377Z,5.05
2023-05-14T08:54:23.844Z,4.90
2023-05-14T08:57:28.532Z,5.30
2023-05-14T09:00:33.943Z,5.07
2023-05-14T09:03:37.464Z,5.80
2023-05-14T09:06:42.356Z,5.32
2023-05-14T09:09:45.957Z,5.85
2023-05-14T09:15:51.349Z,5.53
2023-05-14T09:18:55.403Z,5.57
2023-05-14T09:21:59.324Z,5.70
2023-05-14T09:25:12.500Z,5.15
2023-05-14T09:28:18.751Z,5.50
2023-05-14T09:31:21.660Z,5.60
2023-05-14T09:34:32.475Z,5.72
2023-05-14T09:37:37.290Z,5.60
2023-05-14T09:40:54.430Z,5.45
2023-05-14T09:43:58.224Z,6.12
2023-05-14T09:47:07.171Z,5.60
2023-05-14T09:50:13.337Z,5.35
2023-05-14T09:53:19.462Z,5.20
2023-05-14T09:56:22.420Z,5.70
2023-05-14T09:59:24.878Z,5.87
2023-05-14T10:02:36.941Z,5.70
2023-05-14T10:05:51.287Z,5.90
2023-05-14T10:08:59.967Z,5.37
2023-05-14T10:12:04.584Z,5.68
2023-05-14T10:15:24.235Z,6.17
2023-05-14T10:18:31.137Z,5.45
2023-05-14T10:21:36.600Z,5.82
2023-05-14T10:24:41.549Z,5.57
2023-05-14T10:27:44.254Z,5.80
2023-05-14T10:30:47.118Z,6.10
2023-05-14T10:33:50.974Z,5.97
2023-05-14T10:37:00.876Z,6.07
2023-05-14T10:40:06.248Z,5.95
2023-05-14T10:43:11.348Z,5.87
2023-05-14T10:46:14.769Z,5.35
2023-05-14T10:49:28.833Z,5.90
2023-05-14T10:52:44.540Z,5.78
2023-05-14T10:55:49.768Z,6.12
2023-05-14T10:58:52.371Z,5.87
2023-05-14T11:01:57.444Z,6.30
2023-05-14T11:05:04.280Z,6.30
2023-05-14T11:08:09.031Z,6.05
2023-05-14T11:11:11.574Z,6.15
2023-05-14T11:14:14.405Z,6.40
2023-05-14T11:17:17.122Z,6.22
2023-05-14T11:20:21.150Z,6.18
2023-05-14T11:23:25.485Z,6.78
2023-05-14T11:26:28.115Z,6.53
2023-05-14T11:29:30.565Z,6.37
2023-05-14T11:32:33.657Z,7.00
2023-05-14T11:35:36.852Z,6.70
2023-05-14T11:38:50.622Z,6.72
2023-05-14T11:41:53.246Z,6.25
2023-05-14T11:44:55.940Z,8.07
2023-05-14T11:47:58.404Z,7.05
2023-05-14T11:51:01.082Z,5.47
2023-05-14T11:54:04.049Z,6.47
2023-05-14T11:57:33.131Z,6.15
2023-05-14T12:00:35.626Z,5.90
2023-05-14T12:03:38.463Z,6.03
2023-05-14T12:06:41.065Z,5.82
2023-05-14T12:09:50.630Z,6.82
2023-05-14T12:12:52.954Z,6.30
2023-05-14T12:15:58.285Z,6.35
2023-05-14T12:19:01.804Z,6.18
2023-05-14T12:22:04.598Z,5.78
2023-05-14T12:25:13.639Z,5.85
2023-05-14T12:28:17.504Z,5.70
2023-05-14T12:31:28.289Z,6.07
2023-05-14T12:34:30.999Z,5.90
2023-05-14T12:37:34.077Z,5.62
2023-05-14T12:40:36.768Z,6.35
2023-05-14T12:43:42.588Z,6.35
2023-05-14T12:46:45.406Z,7.75
2023-05-14T12:49:47.845Z,8.70
2023-05-14T12:52:50.474Z,6.43
2023-05-14T12:55:52.943Z,6.37
2023-05-14T12:58:56.623Z,6.53
2023-05-14T13:01:58.956Z,6.18
2023-05-14T13:05:02.832Z,6.45
2023-05-14T13:08:05.292Z,6.35
2023-05-14T13:11:08.401Z,6.55
2023-05-14T13:14:10.743Z,6.65
2023-05-14T13:17:13.456Z,6.25
2023-05-14T13:20:17.829Z,6.62
2023-05-14T13:23:20.390Z,7.05
2023-05-14T13:26:22.828Z,7.55
2023-05-14T13:29:25.614Z,6.60
2023-05-14T13:32:27.962Z,6.75
2023-05-14T13:35:30.624Z,6.62
2023-05-14T13:38:32.955Z,6.87
2023-05-14T13:41:37.800Z,6.85
2023-05-14T13:44:40.253Z,6.90
2023-05-14T13:47:42.939Z,6.60
2023-05-14T13:50:45.500Z,6.72
2023-05-14T13:53:48.114Z,6.60
2023-05-14T13:56:50.510Z,7.03
2023-05-14T13:59:53.240Z,6.53
2023-05-14T14:02:55.731Z,6.62
2023-05-14T14:05:58.367Z,7.10
2023-05-14T14:09:00.936Z,6.47
2023-05-14T14:12:04.521Z,7.57
2023-05-14T14:15:07.722Z,7.12
2023-05-14T14:18:10.417Z,6.37
2023-05-14T14:21:12.878Z,6.95
2023-05-14T14:24:15.603Z,7.22
2023-05-14T14:27:18.314Z,6.60
2023-05-14T14:30:21.007Z,7.07
2023-05-14T14:33:23.353Z,7.28
2023-05-14T14:36:26.077Z,6.65
2023-05-14T14:39:28.418Z,7.78
2023-05-14T14:42:31.506Z,7.28
2023-05-14T14:45:33.847Z,6.70
2023-05-14T14:48:41.224Z,6.47
2023-05-14T14:51:43.786Z,5.93
2023-05-14T14:54:46.376Z,5.45
2023-05-14T14:57:48.733Z,5.03
2023-05-14T15:00:53.720Z,3.70
2023-05-14T15:03:56.200Z,3.72
2023-05-14T15:06:59.120Z,3.65
2023-05-14T15:10:01.652Z,3.85
2023-05-14T15:13:05.936Z,3.53
2023-05-14T15:19:10.934Z,3.72
2023-05-14T15:22:13.508Z,3.80
2023-05-14T15:25:16.188Z,3.25
2023-05-14T15:28:18.519Z,3.50
2023-05-14T15:31:21.424Z,3.30
2023-05-14T15:34:23.846Z,3.72
2023-05-14T15:37:27.023Z,3.33
2023-05-14T15:40:29.600Z,3.30
2023-05-14T15:43:32.297Z,3.30
2023-05-14T15:46:34.742Z,3.25
2023-05-14T15:49:37.374Z,3.97
2023-05-14T15:52:40.104Z,3.40
2023-05-14T15:55:42.857Z,3.67
2023-05-14T15:58:45.167Z,3.30
2023-05-14T16:01:48.001Z,4.00
2023-05-14T16:04:50.702Z,3.85
2023-05-14T16:07:53.101Z,3.83
2023-05-14T16:10:55.760Z,3.72
2023-05-14T16:13:58.508Z,3.80
2023-05-14T16:17:02.152Z,3.70
2023-05-14T16:20:05.373Z,3.50
2023-05-14T16:23:07.943Z,3.10
2023-05-14T16:26:11.039Z,3.00
2023-05-14T16:29:13.671Z,3.10
2023-05-14T16:32:16.325Z,3.28
2023-05-14T16:35:19.048Z,3.23
2023-05-14T16:38:21.547Z,2.85
2023-05-14T16:41:24.191Z,2.80
2023-05-14T16:44:26.545Z,3.37
2023-05-14T16:47:30.519Z,3.15
2023-05-14T16:50:32.904Z,3.55
2023-05-14T16:53:35.796Z,3.90
2023-05-14T16:56:38.250Z,3.20
2023-05-14T16:59:41.108Z,3.00
2023-05-14T17:02:44.085Z,3.20
2023-05-14T17:05:46.767Z,3.50
2023-05-14T17:08:49.117Z,3.35
2023-05-14T17:11:51.787Z,3.25
2023-05-14T17:14:54.135Z,3.50
2023-05-14T17:17:56.866Z,2.97
2023-05-14T17:20:59.356Z,3.25
2023-05-14T17:24:01.972Z,3.55
2023-05-14T17:27:04.961Z,3.65
2023-05-14T17:30:08.524Z,3.70
2023-05-14T17:33:11.541Z,3.62
2023-05-14T17:36:14.289Z,3.62
2023-05-14T17:39:16.648Z,3.50
2023-05-14T17:42:19.321Z,3.65
2023-05-14T17:45:21.929Z,3.80
2023-05-14T17:48:24.787Z,4.23
2023-05-14T17:51:27.146Z,3.78
2023-05-14T17:54:29.784Z,4.30
2023-05-14T17:57:32.153Z,3.83
2023-05-14T18:00:35.335Z,4.50
2023-05-14T18:03:38.252Z,5.20
2023-05-14T18:06:40.741Z,4.10
2023-05-14T18:09:43.363Z,4.35
2023-05-14T18:12:45.948Z,3.95
2023-05-14T18:15:48.626Z,4.28
2023-05-14T18:18:50.978Z,4.43
2023-05-14T18:21:55.528Z,4.20
2023-05-14T18:24:57.968Z,4.35
2023-05-14T18:28:00.732Z,4.72
2023-05-14T18:31:04.372Z,4.03
2023-05-14T18:37:09.779Z,4.30
2023-05-14T18:40:16.901Z,4.68
2023-05-14T18:43:20.818Z,4.65
2023-05-14T18:46:23.990Z,4.55
2023-05-14T18:49:26.414Z,4.82
2023-05-14T18:52:29.145Z,5.30
2023-05-14T18:55:31.731Z,5.45
2023-05-14T18:58:34.431Z,4.90
2023-05-14T19:01:36.909Z,4.85
2023-05-14T19:04:51.179Z,5.25
2023-05-14T19:07:54.519Z,4.97
2023-05-14T19:10:57.102Z,4.60
2023-05-14T19:13:59.666Z,5.30
2023-05-14T19:17:02.780Z,5.25
2023-05-14T19:20:06.479Z,5.50
2023-05-14T19:26:11.445Z,4.75
2023-05-14T19:29:14.325Z,5.37
2023-05-14T19:32:16.658Z,5.10
2023-05-14T19:35:19.371Z,5.43
2023-05-14T19:38:22.060Z,4.97
2023-05-14T19:41:24.668Z,5.00
2023-05-14T19:44:27.024Z,5.28
2023-05-14T19:47:29.791Z,5.43
2023-05-14T19:50:32.193Z,5.60
2023-05-14T19:53:34.764Z,5.80
2023-05-14T19:56:38.319Z,5.55
2023-05-14T20:02:44.049Z,5.30
2023-05-14T20:05:46.956Z,5.50
2023-05-14T20:08:49.481Z,5.43
2023-05-14T20:11:52.100Z,5.90
2023-05-14T20:14:54.600Z,5.35
2023-05-14T20:17:57.891Z,4.35
2023-05-14T20:21:00.666Z,4.30
2023-05-14T20:24:03.456Z,4.53
2023-05-14T20:27:06.108Z,4.10
2023-05-14T20:30:09.165Z,3.92
2023-05-14T20:33:13.392Z,3.90
2023-05-14T20:36:16.377Z,3.87
2023-05-14T20:39:18.831Z,4.15
2023-05-14T20:42:21.467Z,4.32
2023-05-14T20:45:24.037Z,4.18
2023-05-14T20:48:26.962Z,4.97
2023-05-14T20:51:29.265Z,4.75
2023-05-14T20:54:31.904Z,4.68
2023-05-14T20:57:34.373Z,4.90
2023-05-14T21:00:37.074Z,4.45
2023-05-14T21:03:39.469Z,4.35
2023-05-14T21:06:42.304Z,5.15
2023-05-14T21:09:46.518Z,5.12
2023-05-14T21:12:49.145Z,4.85
2023-05-14T21:15:51.622Z,5.12
2023-05-14T21:18:54.380Z,5.30
2023-05-14T21:21:56.737Z,5.00
2023-05-14T21:24:59.417Z,4.97
2023-05-14T21:28:01.746Z,4.45
2023-05-14T21:31:04.354Z,5.22
2023-05-14T21:34:06.730Z,4.70
2023-05-14T21:37:09.373Z,4.30
2023-05-14T21:40:12.670Z,4.03
2023-05-14T21:43:15.471Z,4.78
2023-05-14T21:46:18.512Z,4.22
2023-05-14T21:49:21.094Z,4.22
2023-05-14T21:52:23.409Z,4.10
2023-05-14T21:55:27.775Z,3.90
2023-05-14T21:58:30.461Z,4.00
2023-05-14T22:01:35.635Z,4.03
2023-05-14T22:04:44.877Z,3.60
2023-05-14T22:07:47.659Z,4.00
2023-05-14T22:10:50.380Z,3.50
2023-05-14T22:13:52.690Z,3.62
2023-05-14T22:16:55.559Z,3.62
2023-05-14T22:19:57.971Z,3.75
2023-05-14T22:23:03.028Z,3.30
2023-05-14T22:26:05.430Z,3.47
2023-05-14T22:29:08.071Z,3.70
2023-05-14T22:32:10.460Z,3.60
2023-05-14T22:35:13.137Z,3.70
2023-05-14T22:38:15.639Z,3.40
2023-05-14T22:41:18.246Z,4.40
2023-05-14T22:44:21.670Z,3.80
2023-05-14T22:47:25.273Z,3.78
2023-05-14T22:50:27.604Z,4.00
2023-05-14T22:53:30.247Z,4.03
2023-05-14T22:56:32.586Z,3.90
2023-05-14T22:59:35.213Z,4.18
2023-05-14T23:02:37.557Z,4.30
2023-05-14T23:05:40.215Z,3.97
2023-05-14T23:08:42.512Z,4.07
2023-05-14T23:11:46.097Z,4.15
2023-05-14T23:14:48.394Z,3.95
2023-05-14T23:17:51.087Z,4.43
2023-05-14T23:20:53.547Z,4.40
2023-05-14T23:23:56.144Z,4.18
2023-05-14T23:26:58.516Z,4.20
2023-05-14T23:30:01.194Z,4.35
2023-05-14T23:33:03.708Z,4.70
2023-05-14T23:36:06.980Z,4.50
2023-05-14T23:39:09.503Z,4.53
2023-05-14T23:42:12.078Z,5.12
2023-05-14T23:45:14.408Z,5.30
2023-05-14T23:48:17.035Z,4.97
2023-05-14T23:51:19.389Z,4.93
2023-05-14T23:54:22.002Z,4.70
2023-05-14T23:57:24.406Z,5.53
